sensor_id;sensor_type;location;lat;lon;timestamp;temperature;humidity
68922;DHT22;55959;51.244;5.724;2023-05-14T00:02:17;18.90;57.60
68922;DHT22;55959;51.244;5.724;2023-05-14T00:04:43;18.90;57.70
68922;DHT22;55959;51.244;5.724;2023-05-14T00:07:09;18.80;57.60
68922;DHT22;55959;51.244;5.724;2023-05-14T00:09:35;18.80;57.60
68922;DHT22;55959;51.244;5.724;2023-05-14T00:12:01;18.80;57.50
68922;DHT22;55959;51.244;5.724;2023-05-14T00:14:26;18.70;57.50
68922;DHT22;55959;51.244;5.724;2023-05-14T00:16:52;18.70;57.50
68922;DHT22;55959;51.244;5.724;2023-05-14T00:19:18;18.70;57.60
68922;DHT22;55959;51.244;5.724;2023-05-14T00:21:44;18.60;58.20
68922;DHT22;55959;51.244;5.724;2023-05-14T00:24:09;18.60;57.60
68922;DHT22;55959;51.244;5.724;2023-05-14T00:26:35;18.50;57.60
68922;DHT22;55959;51.244;5.724;2023-05-14T00:29:01;18.50;57.70
68922;DHT22;55959;51.244;5.724;2023-05-14T00:31:27;18.50;57.70
68922;DHT22;55959;51.244;5.724;2023-05-14T00:33:52;18.50;57.80
68922;DHT22;55959;51.244;5.724;2023-05-14T00:36:18;18.40;57.90
68922;DHT22;55959;51.244;5.724;2023-05-14T00:38:44;18.40;58.00
68922;DHT22;55959;51.244;5.724;2023-05-14T00:41:10;18.30;58.00
68922;DHT22;55959;51.244;5.724;2023-05-14T00:43:35;18.30;58.10
68922;DHT22;55959;51.244;5.724;2023-05-14T00:46:01;18.30;58.20
68922;DHT22;55959;51.244;5.724;2023-05-14T00:48:27;18.30;58.20
68922;DHT22;55959;51.244;5.724;2023-05-14T00:50:53;18.20;58.30
68922;DHT22;55959;51.244;5.724;2023-05-14T00:53:19;18.20;58.40
68922;DHT22;55959;51.244;5.724;2023-05-14T00:55:46;18.20;58.50
68922;DHT22;55959;51.244;5.724;2023-05-14T00:58:13;18.10;58.60
68922;DHT22;55959;51.244;5.724;2023-05-14T01:00:40;18.10;58.70
68922;DHT22;55959;51.244;5.724;2023-05-14T01:03:07;18.10;58.70
68922;DHT22;55959;51.244;5.724;2023-05-14T01:08:39;18.00;58.90
68922;DHT22;55959;51.244;5.724;2023-05-14T01:11:56;18.00;59.00
68922;DHT22;55959;51.244;5.724;2023-05-14T01:14:39;17.90;59.00
68922;DHT22;55959;51.244;5.724;2023-05-14T01:17:24;17.90;59.10
68922;DHT22;55959;51.244;5.724;2023-05-14T01:19:51;17.80;59.10
68922;DHT22;55959;51.244;5.724;2023-05-14T01:22:18;17.90;59.30
68922;DHT22;55959;51.244;5.724;2023-05-14T01:24:43;17.80;59.30
68922;DHT22;55959;51.244;5.724;2023-05-14T01:29:48;17.80;59.40
68922;DHT22;55959;51.244;5.724;2023-05-14T01:32:19;17.70;59.50
68922;DHT22;55959;51.244;5.724;2023-05-14T01:34:50;17.70;59.60
68922;DHT22;55959;51.244;5.724;2023-05-14T01:37:17;17.70;59.70
68922;DHT22;55959;51.244;5.724;2023-05-14T01:39:43;17.70;59.70
68922;DHT22;55959;51.244;5.724;2023-05-14T01:42:10;17.70;59.70
68922;DHT22;55959;51.244;5.724;2023-05-14T01:44:36;17.60;59.70
68922;DHT22;55959;51.244;5.724;2023-05-14T01:47:01;17.70;59.70
68922;DHT22;55959;51.244;5.724;2023-05-14T01:49:27;17.60;59.80
68922;DHT22;55959;51.244;5.724;2023-05-14T01:51:53;17.60;59.80
68922;DHT22;55959;51.244;5.724;2023-05-14T01:54:19;17.60;59.80
68922;DHT22;55959;51.244;5.724;2023-05-14T01:56:45;17.50;59.80
68922;DHT22;55959;51.244;5.724;2023-05-14T01:59:10;17.50;59.80
68922;DHT22;55959;51.244;5.724;2023-05-14T02:01:36;17.50;59.90
68922;DHT22;55959;51.244;5.724;2023-05-14T02:04:03;17.50;59.90
68922;DHT22;55959;51.244;5.724;2023-05-14T02:06:29;17.40;59.80
68922;DHT22;55959;51.244;5.724;2023-05-14T02:08:55;17.40;59.90
68922;DHT22;55959;51.244;5.724;2023-05-14T02:11:21;17.40;60.70
68922;DHT22;55959;51.244;5.724;2023-05-14T02:13:47;17.40;60.00
68922;DHT22;55959;51.244;5.724;2023-05-14T02:16:13;17.30;60.00
68922;DHT22;55959;51.244;5.724;2023-05-14T02:18:38;17.30;60.10
68922;DHT22;55959;51.244;5.724;2023-05-14T02:21:04;17.30;60.20
68922;DHT22;55959;51.244;5.724;2023-05-14T02:23:30;17.20;60.30
68922;DHT22;55959;51.244;5.724;2023-05-14T02:25:55;17.20;60.40
68922;DHT22;55959;51.244;5.724;2023-05-14T02:28:21;17.20;60.50
68922;DHT22;55959;51.244;5.724;2023-05-14T02:30:47;17.10;60.40
68922;DHT22;55959;51.244;5.724;2023-05-14T02:33:12;17.10;60.50
68922;DHT22;55959;51.244;5.724;2023-05-14T02:35:38;17.10;60.50
68922;DHT22;55959;51.244;5.724;2023-05-14T02:38:04;17.10;60.70
68922;DHT22;55959;51.244;5.724;2023-05-14T02:40:30;17.10;60.80
68922;DHT22;55959;51.244;5.724;2023-05-14T02:42:56;17.00;60.70
68922;DHT22;55959;51.244;5.724;2023-05-14T02:45:22;17.00;60.80
68922;DHT22;55959;51.244;5.724;2023-05-14T02:47:48;17.00;60.90
68922;DHT22;55959;51.244;5.724;2023-05-14T02:50:13;16.90;61.10
68922;DHT22;55959;51.244;5.724;2023-05-14T02:52:39;16.90;61.20
68922;DHT22;55959;51.244;5.724;2023-05-14T02:55:05;16.90;61.20
68922;DHT22;55959;51.244;5.724;2023-05-14T02:57:31;16.90;61.30
68922;DHT22;55959;51.244;5.724;2023-05-14T02:59:58;16.90;61.30
68922;DHT22;55959;51.244;5.724;2023-05-14T03:02:24;16.80;61.30
68922;DHT22;55959;51.244;5.724;2023-05-14T03:04:50;16.80;61.30
68922;DHT22;55959;51.244;5.724;2023-05-14T03:07:15;16.80;61.50
68922;DHT22;55959;51.244;5.724;2023-05-14T03:09:41;16.80;61.70
68922;DHT22;55959;51.244;5.724;2023-05-14T03:12:07;16.70;61.80
68922;DHT22;55959;51.244;5.724;2023-05-14T03:14:33;16.70;61.70
68922;DHT22;55959;51.244;5.724;2023-05-14T03:16:58;16.70;61.60
68922;DHT22;55959;51.244;5.724;2023-05-14T03:19:24;16.70;61.80
68922;DHT22;55959;51.244;5.724;2023-05-14T03:21:50;16.60;61.90
68922;DHT22;55959;51.244;5.724;2023-05-14T03:24:15;16.60;61.90
68922;DHT22;55959;51.244;5.724;2023-05-14T03:26:42;16.60;62.00
68922;DHT22;55959;51.244;5.724;2023-05-14T03:29:08;16.60;62.20
68922;DHT22;55959;51.244;5.724;2023-05-14T03:31:35;16.60;62.30
68922;DHT22;55959;51.244;5.724;2023-05-14T03:34:01;16.50;62.30
68922;DHT22;55959;51.244;5.724;2023-05-14T03:36:27;16.50;62.40
68922;DHT22;55959;51.244;5.724;2023-05-14T03:38:52;16.40;62.60
68922;DHT22;55959;51.244;5.724;2023-05-14T03:41:18;16.40;62.70
68922;DHT22;55959;51.244;5.724;2023-05-14T03:43:44;16.40;62.60
68922;DHT22;55959;51.244;5.724;2023-05-14T03:46:10;16.40;62.80
68922;DHT22;55959;51.244;5.724;2023-05-14T03:48:36;16.40;62.90
68922;DHT22;55959;51.244;5.724;2023-05-14T03:51:01;16.40;62.90
68922;DHT22;55959;51.244;5.724;2023-05-14T03:53:27;16.30;62.80
68922;DHT22;55959;51.244;5.724;2023-05-14T03:55:53;16.30;62.90
68922;DHT22;55959;51.244;5.724;2023-05-14T03:58:18;16.30;63.10
68922;DHT22;55959;51.244;5.724;2023-05-14T04:00:44;16.30;63.10
68922;DHT22;55959;51.244;5.724;2023-05-14T04:03:10;16.30;63.30
68922;DHT22;55959;51.244;5.724;2023-05-14T04:05:36;16.20;63.30
68922;DHT22;55959;51.244;5.724;2023-05-14T04:08:01;16.20;63.50
68922;DHT22;55959;51.244;5.724;2023-05-14T04:10:27;16.20;63.50
68922;DHT22;55959;51.244;5.724;2023-05-14T04:12:53;16.20;63.40
68922;DHT22;55959;51.244;5.724;2023-05-14T04:15:20;16.20;63.40
68922;DHT22;55959;51.244;5.724;2023-05-14T04:17:45;16.10;63.50
68922;DHT22;55959;51.244;5.724;2023-05-14T04:20:11;16.10;63.50
68922;DHT22;55959;51.244;5.724;2023-05-14T04:22:37;16.10;63.50
68922;DHT22;55959;51.244;5.724;2023-05-14T04:25:03;16.00;63.50
68922;DHT22;55959;51.244;5.724;2023-05-14T04:27:29;16.00;63.50
68922;DHT22;55959;51.244;5.724;2023-05-14T04:29:55;16.00;63.90
68922;DHT22;55959;51.244;5.724;2023-05-14T04:32:20;16.00;64.10
68922;DHT22;55959;51.244;5.724;2023-05-14T04:34:46;16.00;64.10
68922;DHT22;55959;51.244;5.724;2023-05-14T04:37:12;16.00;64.30
68922;DHT22;55959;51.244;5.724;2023-05-14T04:39:38;16.00;64.50
68922;DHT22;55959;51.244;5.724;2023-05-14T04:42:04;15.90;64.40
68922;DHT22;55959;51.244;5.724;2023-05-14T04:44:32;15.90;64.50
68922;DHT22;55959;51.244;5.724;2023-05-14T04:46:58;15.90;64.80
68922;DHT22;55959;51.244;5.724;2023-05-14T04:49:24;15.90;64.90
68922;DHT22;55959;51.244;5.724;2023-05-14T04:51:49;15.90;65.10
68922;DHT22;55959;51.244;5.724;2023-05-14T04:54:15;16.00;65.60
68922;DHT22;55959;51.244;5.724;2023-05-14T04:56:42;16.00;65.90
68922;DHT22;55959;51.244;5.724;2023-05-14T04:59:08;16.00;66.10
68922;DHT22;55959;51.244;5.724;2023-05-14T05:01:33;16.00;66.30
68922;DHT22;55959;51.244;5.724;2023-05-14T05:03:59;16.00;66.60
68922;DHT22;55959;51.244;5.724;2023-05-14T05:06:25;16.00;67.00
68922;DHT22;55959;51.244;5.724;2023-05-14T05:08:51;16.10;67.50
68922;DHT22;55959;51.244;5.724;2023-05-14T05:11:17;16.20;68.00
68922;DHT22;55959;51.244;5.724;2023-05-14T05:13:43;16.20;68.30
68922;DHT22;55959;51.244;5.724;2023-05-14T05:16:09;16.30;68.50
68922;DHT22;55959;51.244;5.724;2023-05-14T05:18:34;16.40;69.70
68922;DHT22;55959;51.244;5.724;2023-05-14T05:21:00;16.60;68.90
68922;DHT22;55959;51.244;5.724;2023-05-14T05:23:26;16.70;68.70
68922;DHT22;55959;51.244;5.724;2023-05-14T05:25:51;16.80;68.80
68922;DHT22;55959;51.244;5.724;2023-05-14T05:28:17;16.90;68.50
68922;DHT22;55959;51.244;5.724;2023-05-14T05:30:43;17.10;68.30
68922;DHT22;55959;51.244;5.724;2023-05-14T05:33:11;17.20;67.90
68922;DHT22;55959;51.244;5.724;2023-05-14T05:35:38;17.30;67.60
68922;DHT22;55959;51.244;5.724;2023-05-14T05:38:03;17.40;67.40
68922;DHT22;55959;51.244;5.724;2023-05-14T05:40:29;17.60;67.30
68922;DHT22;55959;51.244;5.724;2023-05-14T05:42:55;17.70;67.10
68922;DHT22;55959;51.244;5.724;2023-05-14T05:45:21;17.80;66.70
68922;DHT22;55959;51.244;5.724;2023-05-14T05:47:46;17.80;66.70
68922;DHT22;55959;51.244;5.724;2023-05-14T05:50:12;17.90;66.30
68922;DHT22;55959;51.244;5.724;2023-05-14T05:52:39;18.00;66.10
68922;DHT22;55959;51.244;5.724;2023-05-14T05:55:05;18.10;65.80
68922;DHT22;55959;51.244;5.724;2023-05-14T05:57:31;18.20;65.90
68922;DHT22;55959;51.244;5.724;2023-05-14T05:59:57;18.20;66.10
68922;DHT22;55959;51.244;5.724;2023-05-14T06:02:23;18.40;65.70
68922;DHT22;55959;51.244;5.724;2023-05-14T06:04:49;18.50;65.80
68922;DHT22;55959;51.244;5.724;2023-05-14T06:07:15;18.50;65.70
68922;DHT22;55959;51.244;5.724;2023-05-14T06:09:40;18.70;66.40
68922;DHT22;55959;51.244;5.724;2023-05-14T06:12:06;18.80;65.30
68922;DHT22;55959;51.244;5.724;2023-05-14T06:14:32;18.90;65.00
68922;DHT22;55959;51.244;5.724;2023-05-14T06:16:58;19.00;64.40
68922;DHT22;55959;51.244;5.724;2023-05-14T06:19:24;19.10;64.20
68922;DHT22;55959;51.244;5.724;2023-05-14T06:21:50;19.20;64.00
68922;DHT22;55959;51.244;5.724;2023-05-14T06:24:15;19.30;63.80
68922;DHT22;55959;51.244;5.724;2023-05-14T06:26:41;19.40;63.40
68922;DHT22;55959;51.244;5.724;2023-05-14T06:29:07;19.50;63.00
68922;DHT22;55959;51.244;5.724;2023-05-14T06:31:32;19.60;63.00
68922;DHT22;55959;51.244;5.724;2023-05-14T06:33:58;19.70;63.00
68922;DHT22;55959;51.244;5.724;2023-05-14T06:36:24;19.80;62.60
68922;DHT22;55959;51.244;5.724;2023-05-14T06:38:50;19.90;62.60
68922;DHT22;55959;51.244;5.724;2023-05-14T06:41:15;19.90;62.20
68922;DHT22;55959;51.244;5.724;2023-05-14T06:43:41;20.10;62.20
68922;DHT22;55959;51.244;5.724;2023-05-14T06:46:07;20.20;62.00
68922;DHT22;55959;51.244;5.724;2023-05-14T06:48:33;20.30;61.60
68922;DHT22;55959;51.244;5.724;2023-05-14T06:50:58;20.30;61.20
68922;DHT22;55959;51.244;5.724;2023-05-14T06:53:24;20.50;60.80
68922;DHT22;55959;51.244;5.724;2023-05-14T06:55:51;20.50;60.80
68922;DHT22;55959;51.244;5.724;2023-05-14T06:58:16;20.70;60.40
68922;DHT22;55959;51.244;5.724;2023-05-14T07:00:42;20.80;59.40
68922;DHT22;55959;51.244;5.724;2023-05-14T07:03:08;20.80;59.20
68922;DHT22;55959;51.244;5.724;2023-05-14T07:05:33;20.90;59.00
68922;DHT22;55959;51.244;5.724;2023-05-14T07:08:00;20.90;58.90
68922;DHT22;55959;51.244;5.724;2023-05-14T07:10:25;20.90;58.60
68922;DHT22;55959;51.244;5.724;2023-05-14T07:12:52;21.00;58.20
68922;DHT22;55959;51.244;5.724;2023-05-14T07:15:18;21.00;57.80
68922;DHT22;55959;51.244;5.724;2023-05-14T07:17:44;21.00;57.20
68922;DHT22;55959;51.244;5.724;2023-05-14T07:20:10;20.90;57.10
68922;DHT22;55959;51.244;5.724;2023-05-14T07:22:36;20.90;57.60
68922;DHT22;55959;51.244;5.724;2023-05-14T07:25:01;20.90;57.60
68922;DHT22;55959;51.244;5.724;2023-05-14T07:27:27;20.80;57.60
68922;DHT22;55959;51.244;5.724;2023-05-14T07:29:53;20.80;57.30
68922;DHT22;55959;51.244;5.724;2023-05-14T07:32:19;20.80;57.60
68922;DHT22;55959;51.244;5.724;2023-05-14T07:34:44;20.80;57.90
68922;DHT22;55959;51.244;5.724;2023-05-14T07:37:10;20.80;58.10
68922;DHT22;55959;51.244;5.724;2023-05-14T07:39:36;20.80;58.00
68922;DHT22;55959;51.244;5.724;2023-05-14T07:42:03;20.80;57.80
68922;DHT22;55959;51.244;5.724;2023-05-14T07:44:29;20.80;57.60
68922;DHT22;55959;51.244;5.724;2023-05-14T07:46:55;20.80;57.60
68922;DHT22;55959;51.244;5.724;2023-05-14T07:49:20;20.80;57.50
68922;DHT22;55959;51.244;5.724;2023-05-14T07:51:46;20.80;57.00
68922;DHT22;55959;51.244;5.724;2023-05-14T07:54:12;20.80;56.60
68922;DHT22;55959;51.244;5.724;2023-05-14T07:56:38;20.80;57.10
68922;DHT22;55959;51.244;5.724;2023-05-14T07:59:04;20.80;57.40
68922;DHT22;55959;51.244;5.724;2023-05-14T08:01:31;20.80;57.60
68922;DHT22;55959;51.244;5.724;2023-05-14T08:03:57;20.80;57.30
68922;DHT22;55959;51.244;5.724;2023-05-14T08:06:24;20.90;57.50
68922;DHT22;55959;51.244;5.724;2023-05-14T08:08:51;20.90;57.60
68922;DHT22;55959;51.244;5.724;2023-05-14T08:11:17;20.90;57.40
68922;DHT22;55959;51.244;5.724;2023-05-14T08:13:43;20.90;57.50
68922;DHT22;55959;51.244;5.724;2023-05-14T08:16:09;21.00;57.50
68922;DHT22;55959;51.244;5.724;2023-05-14T08:18:34;21.00;57.60
68922;DHT22;55959;51.244;5.724;2023-05-14T08:21:00;21.00;57.30
68922;DHT22;55959;51.244;5.724;2023-05-14T08:23:26;21.10;57.40
68922;DHT22;55959;51.244;5.724;2023-05-14T08:25:52;21.10;57.20
68922;DHT22;55959;51.244;5.724;2023-05-14T08:28:19;21.10;56.60
68922;DHT22;55959;51.244;5.724;2023-05-14T08:30:45;21.10;56.30
68922;DHT22;55959;51.244;5.724;2023-05-14T08:33:11;21.20;56.70
68922;DHT22;55959;51.244;5.724;2023-05-14T08:35:37;21.10;56.70
68922;DHT22;55959;51.244;5.724;2023-05-14T08:38:02;21.20;57.50
68922;DHT22;55959;51.244;5.724;2023-05-14T08:40:28;21.20;56.50
68922;DHT22;55959;51.244;5.724;2023-05-14T08:42:55;21.20;56.50
68922;DHT22;55959;51.244;5.724;2023-05-14T08:45:28;21.20;55.90
68922;DHT22;55959;51.244;5.724;2023-05-14T08:47:58;21.20;55.80
68922;DHT22;55959;51.244;5.724;2023-05-14T08:50:27;21.20;56.10
68922;DHT22;55959;51.244;5.724;2023-05-14T08:52:54;21.20;55.60
68922;DHT22;55959;51.244;5.724;2023-05-14T08:55:20;21.20;54.70
68922;DHT22;55959;51.244;5.724;2023-05-14T08:57:48;21.20;54.60
68922;DHT22;55959;51.244;5.724;2023-05-14T09:00:16;21.20;54.20
68922;DHT22;55959;51.244;5.724;2023-05-14T09:02:44;21.20;54.40
68922;DHT22;55959;51.244;5.724;2023-05-14T09:05:10;21.20;54.20
68922;DHT22;55959;51.244;5.724;2023-05-14T09:07:36;21.20;54.30
68922;DHT22;55959;51.244;5.724;2023-05-14T09:10:03;21.20;54.80
68922;DHT22;55959;51.244;5.724;2023-05-14T09:12:29;21.30;54.90
68922;DHT22;55959;51.244;5.724;2023-05-14T09:14:55;21.30;55.30
68922;DHT22;55959;51.244;5.724;2023-05-14T09:17:21;21.30;55.20
68922;DHT22;55959;51.244;5.724;2023-05-14T09:19:50;21.40;55.20
68922;DHT22;55959;51.244;5.724;2023-05-14T09:22:17;21.40;55.50
68922;DHT22;55959;51.244;5.724;2023-05-14T09:25:07;21.50;55.10
68922;DHT22;55959;51.244;5.724;2023-05-14T09:27:34;21.50;55.20
68922;DHT22;55959;51.244;5.724;2023-05-14T09:30:09;21.50;55.40
68922;DHT22;55959;51.244;5.724;2023-05-14T09:32:38;21.60;55.40
68922;DHT22;55959;51.244;5.724;2023-05-14T09:35:15;21.70;55.60
68922;DHT22;55959;51.244;5.724;2023-05-14T09:37:47;21.70;55.40
68922;DHT22;55959;51.244;5.724;2023-05-14T09:40:20;21.80;55.50
68922;DHT22;55959;51.244;5.724;2023-05-14T09:42:47;21.80;54.80
68922;DHT22;55959;51.244;5.724;2023-05-14T09:45:14;21.90;54.80
68922;DHT22;55959;51.244;5.724;2023-05-14T09:47:41;21.90;54.90
68922;DHT22;55959;51.244;5.724;2023-05-14T09:50:07;22.00;55.10
68922;DHT22;55959;51.244;5.724;2023-05-14T09:52:34;22.00;54.70
68922;DHT22;55959;51.244;5.724;2023-05-14T09:54:59;22.10;55.00
68922;DHT22;55959;51.244;5.724;2023-05-14T09:57:25;22.10;54.30
68922;DHT22;55959;51.244;5.724;2023-05-14T09:59:52;22.20;54.70
68922;DHT22;55959;51.244;5.724;2023-05-14T10:02:28;22.20;55.00
68922;DHT22;55959;51.244;5.724;2023-05-14T10:04:59;22.30;55.00
68922;DHT22;55959;51.244;5.724;2023-05-14T10:07:33;22.30;55.20
68922;DHT22;55959;51.244;5.724;2023-05-14T10:10:02;22.40;55.20
68922;DHT22;55959;51.244;5.724;2023-05-14T10:12:33;22.40;54.60
68922;DHT22;55959;51.244;5.724;2023-05-14T10:15:08;22.50;54.50
68922;DHT22;55959;51.244;5.724;2023-05-14T10:17:44;22.60;53.90
68922;DHT22;55959;51.244;5.724;2023-05-14T10:20:15;22.60;53.70
68922;DHT22;55959;51.244;5.724;2023-05-14T10:22:42;22.60;53.30
68922;DHT22;55959;51.244;5.724;2023-05-14T10:25:08;22.70;53.50
68922;DHT22;55959;51.244;5.724;2023-05-14T10:27:35;22.80;53.50
68922;DHT22;55959;51.244;5.724;2023-05-14T10:30:05;22.80;53.20
68922;DHT22;55959;51.244;5.724;2023-05-14T10:32:36;22.90;52.90
68922;DHT22;55959;51.244;5.724;2023-05-14T10:35:15;22.90;52.80
68922;DHT22;55959;51.244;5.724;2023-05-14T10:37:45;22.90;53.20
68922;DHT22;55959;51.244;5.724;2023-05-14T10:40:12;23.00;53.30
68922;DHT22;55959;51.244;5.724;2023-05-14T10:42:38;23.00;52.70
68922;DHT22;55959;51.244;5.724;2023-05-14T10:45:10;23.10;52.20
68922;DHT22;55959;51.244;5.724;2023-05-14T10:47:41;23.10;51.30
68922;DHT22;55959;51.244;5.724;2023-05-14T10:50:14;23.20;51.20
68922;DHT22;55959;51.244;5.724;2023-05-14T10:52:46;23.20;51.40
68922;DHT22;55959;51.244;5.724;2023-05-14T10:55:13;23.20;51.60
68922;DHT22;55959;51.244;5.724;2023-05-14T10:57:42;23.30;51.90
68922;DHT22;55959;51.244;5.724;2023-05-14T11:00:09;23.30;51.60
68922;DHT22;55959;51.244;5.724;2023-05-14T11:02:37;23.40;51.70
68922;DHT22;55959;51.244;5.724;2023-05-14T11:05:06;23.40;51.20
68922;DHT22;55959;51.244;5.724;2023-05-14T11:07:35;23.50;50.30
68922;DHT22;55959;51.244;5.724;2023-05-14T11:10:04;23.50;50.40
68922;DHT22;55959;51.244;5.724;2023-05-14T11:12:37;23.60;50.60
68922;DHT22;55959;51.244;5.724;2023-05-14T11:15:10;23.60;50.90
68922;DHT22;55959;51.244;5.724;2023-05-14T11:17:38;23.70;51.00
68922;DHT22;55959;51.244;5.724;2023-05-14T11:20:05;23.80;50.70
68922;DHT22;55959;51.244;5.724;2023-05-14T11:22:32;23.80;50.80
68922;DHT22;55959;51.244;5.724;2023-05-14T11:24:59;23.90;50.70
68922;DHT22;55959;51.244;5.724;2023-05-14T11:27:25;23.90;50.50
68922;DHT22;55959;51.244;5.724;2023-05-14T11:29:51;24.00;50.70
68922;DHT22;55959;51.244;5.724;2023-05-14T11:32:17;24.00;48.80
68922;DHT22;55959;51.244;5.724;2023-05-14T11:34:44;24.10;48.70
68922;DHT22;55959;51.244;5.724;2023-05-14T11:37:12;24.10;48.50
68922;DHT22;55959;51.244;5.724;2023-05-14T11:39:44;24.10;49.00
68922;DHT22;55959;51.244;5.724;2023-05-14T11:42:11;24.20;49.70
68922;DHT22;55959;51.244;5.724;2023-05-14T11:44:39;24.20;49.70
68922;DHT22;55959;51.244;5.724;2023-05-14T11:47:06;24.30;50.00
68922;DHT22;55959;51.244;5.724;2023-05-14T11:49:32;24.30;49.50
68922;DHT22;55959;51.244;5.724;2023-05-14T11:52:01;24.40;47.70
68922;DHT22;55959;51.244;5.724;2023-05-14T11:54:30;24.40;47.60
68922;DHT22;55959;51.244;5.724;2023-05-14T11:56:57;24.50;48.10
68922;DHT22;55959;51.244;5.724;2023-05-14T11:59:27;24.50;48.20
68922;DHT22;55959;51.244;5.724;2023-05-14T12:01:54;24.60;48.40
68922;DHT22;55959;51.244;5.724;2023-05-14T12:04:21;24.60;48.30
68922;DHT22;55959;51.244;5.724;2023-05-14T12:06:51;24.60;47.30
68922;DHT22;55959;51.244;5.724;2023-05-14T12:09:21;24.70;45.80
68922;DHT22;55959;51.244;5.724;2023-05-14T12:11:48;24.70;46.10
68922;DHT22;55959;51.244;5.724;2023-05-14T12:16:46;24.80;46.90
68922;DHT22;55959;51.244;5.724;2023-05-14T12:19:15;24.80;46.00
68922;DHT22;55959;51.244;5.724;2023-05-14T12:21:43;24.90;45.70
68922;DHT22;55959;51.244;5.724;2023-05-14T12:24:14;24.90;45.70
68922;DHT22;55959;51.244;5.724;2023-05-14T12:26:46;25.00;45.20
68922;DHT22;55959;51.244;5.724;2023-05-14T12:29:14;25.00;45.70
68922;DHT22;55959;51.244;5.724;2023-05-14T12:31:49;25.00;45.60
68922;DHT22;55959;51.244;5.724;2023-05-14T12:34:15;25.10;45.70
68922;DHT22;55959;51.244;5.724;2023-05-14T12:36:42;25.10;45.30
68922;DHT22;55959;51.244;5.724;2023-05-14T12:39:08;25.10;43.30
68922;DHT22;55959;51.244;5.724;2023-05-14T12:41:35;25.20;43.60
68922;DHT22;55959;51.244;5.724;2023-05-14T12:44:03;25.20;43.60
68922;DHT22;55959;51.244;5.724;2023-05-14T12:46:29;25.20;43.20
68922;DHT22;55959;51.244;5.724;2023-05-14T12:48:55;25.20;42.40
68922;DHT22;55959;51.244;5.724;2023-05-14T12:51:22;25.30;41.30
68922;DHT22;55959;51.244;5.724;2023-05-14T12:53:48;25.30;39.80
68922;DHT22;55959;51.244;5.724;2023-05-14T12:56:14;25.30;40.80
68922;DHT22;55959;51.244;5.724;2023-05-14T12:58:40;25.30;41.80
68922;DHT22;55959;51.244;5.724;2023-05-14T13:01:06;25.30;41.30
68922;DHT22;55959;51.244;5.724;2023-05-14T13:03:32;25.30;39.30
68922;DHT22;55959;51.244;5.724;2023-05-14T13:05:58;25.30;40.30
68922;DHT22;55959;51.244;5.724;2023-05-14T13:08:24;25.30;39.80
68922;DHT22;55959;51.244;5.724;2023-05-14T13:10:54;25.30;40.40
68922;DHT22;55959;51.244;5.724;2023-05-14T13:13:21;25.30;39.90
68922;DHT22;55959;51.244;5.724;2023-05-14T13:15:47;25.30;39.60
68922;DHT22;55959;51.244;5.724;2023-05-14T13:18:13;25.30;40.00
68922;DHT22;55959;51.244;5.724;2023-05-14T13:20:39;25.30;39.20
68922;DHT22;55959;51.244;5.724;2023-05-14T13:23:05;25.30;39.70
68922;DHT22;55959;51.244;5.724;2023-05-14T13:25:32;25.30;40.40
68922;DHT22;55959;51.244;5.724;2023-05-14T13:27:58;25.40;39.50
68922;DHT22;55959;51.244;5.724;2023-05-14T13:30:24;25.40;40.00
68922;DHT22;55959;51.244;5.724;2023-05-14T13:32:49;25.40;40.80
68922;DHT22;55959;51.244;5.724;2023-05-14T13:35:15;25.40;41.10
68922;DHT22;55959;51.244;5.724;2023-05-14T13:37:45;25.40;41.30
68922;DHT22;55959;51.244;5.724;2023-05-14T13:40:11;25.40;41.60
68922;DHT22;55959;51.244;5.724;2023-05-14T13:42:37;25.50;41.90
68922;DHT22;55959;51.244;5.724;2023-05-14T13:45:06;25.50;41.60
68922;DHT22;55959;51.244;5.724;2023-05-14T13:47:32;25.50;41.00
68922;DHT22;55959;51.244;5.724;2023-05-14T13:49:58;25.50;40.30
68922;DHT22;55959;51.244;5.724;2023-05-14T13:52:24;25.50;40.50
68922;DHT22;55959;51.244;5.724;2023-05-14T13:54:50;25.50;40.90
68922;DHT22;55959;51.244;5.724;2023-05-14T13:57:18;25.60;40.50
68922;DHT22;55959;51.244;5.724;2023-05-14T13:59:45;25.60;40.80
68922;DHT22;55959;51.244;5.724;2023-05-14T14:02:11;25.70;40.80
68922;DHT22;55959;51.244;5.724;2023-05-14T14:04:37;25.70;40.90
68922;DHT22;55959;51.244;5.724;2023-05-14T14:07:03;25.80;41.10
68922;DHT22;55959;51.244;5.724;2023-05-14T14:09:29;25.90;39.80
68922;DHT22;55959;51.244;5.724;2023-05-14T14:12:02;25.90;40.30
68922;DHT22;55959;51.244;5.724;2023-05-14T14:14:28;26.00;40.00
68922;DHT22;55959;51.244;5.724;2023-05-14T14:16:55;26.00;40.10
68922;DHT22;55959;51.244;5.724;2023-05-14T14:19:20;26.10;40.10
68922;DHT22;55959;51.244;5.724;2023-05-14T14:21:46;26.10;40.00
68922;DHT22;55959;51.244;5.724;2023-05-14T14:24:12;26.10;39.60
68922;DHT22;55959;51.244;5.724;2023-05-14T14:26:38;26.10;39.60
68922;DHT22;55959;51.244;5.724;2023-05-14T14:29:04;26.20;39.80
68922;DHT22;55959;51.244;5.724;2023-05-14T14:31:30;26.20;40.30
68922;DHT22;55959;51.244;5.724;2023-05-14T14:33:56;26.20;39.90
68922;DHT22;55959;51.244;5.724;2023-05-14T14:36:21;26.30;40.00
68922;DHT22;55959;51.244;5.724;2023-05-14T14:38:47;26.30;39.90
68922;DHT22;55959;51.244;5.724;2023-05-14T14:41:13;26.40;39.20
68922;DHT22;55959;51.244;5.724;2023-05-14T14:43:40;26.40;39.60
68922;DHT22;55959;51.244;5.724;2023-05-14T14:46:06;26.40;39.30
68922;DHT22;55959;51.244;5.724;2023-05-14T14:48:35;26.40;39.60
68922;DHT22;55959;51.244;5.724;2023-05-14T14:51:05;26.50;38.40
68922;DHT22;55959;51.244;5.724;2023-05-14T14:53:32;26.50;38.60
68922;DHT22;55959;51.244;5.724;2023-05-14T14:55:59;26.50;39.20
68922;DHT22;55959;51.244;5.724;2023-05-14T14:58:25;26.50;38.90
68922;DHT22;55959;51.244;5.724;2023-05-14T15:00:53;26.50;39.00
68922;DHT22;55959;51.244;5.724;2023-05-14T15:03:20;26.60;38.70
68922;DHT22;55959;51.244;5.724;2023-05-14T15:05:47;26.60;38.50
68922;DHT22;55959;51.244;5.724;2023-05-14T15:08:14;26.60;38.20
68922;DHT22;55959;51.244;5.724;2023-05-14T15:10:40;26.60;38.00
68922;DHT22;55959;51.244;5.724;2023-05-14T15:13:07;26.60;37.10
68922;DHT22;55959;51.244;5.724;2023-05-14T15:15:34;26.60;37.80
68922;DHT22;55959;51.244;5.724;2023-05-14T15:18:01;26.60;38.50
68922;DHT22;55959;51.244;5.724;2023-05-14T15:20:28;26.60;38.70
68922;DHT22;55959;51.244;5.724;2023-05-14T15:22:55;26.70;38.50
68922;DHT22;55959;51.244;5.724;2023-05-14T15:25:22;26.70;38.70
68922;DHT22;55959;51.244;5.724;2023-05-14T15:27:49;26.70;38.70
68922;DHT22;55959;51.244;5.724;2023-05-14T15:30:15;26.70;37.80
68922;DHT22;55959;51.244;5.724;2023-05-14T15:32:41;26.70;38.00
68922;DHT22;55959;51.244;5.724;2023-05-14T15:35:07;26.70;37.20
68922;DHT22;55959;51.244;5.724;2023-05-14T15:37:42;26.70;37.60